sensor_id;sensor_type;location;lat;lon;timestamp;P1;durP1;ratioP1;P2;durP2;ratioP2
29916;SDS011;16786;49.466;11.068;2022-08-19T00:00:04;29.83;;;23.33;;
29916;SDS011;16786;49.466;11.068;2022-08-19T00:02:35;31.90;;;24.88;;
29916;SDS011;16786;49.466;11.068;2022-08-19T00:05:15;29.40;;;25.35;;
29916;SDS011;16786;49.466;11.068;2022-08-19T00:07:44;29.23;;;25.67;;
29916;SDS011;16786;49.466;11.068;2022-08-19T00:10:13;27.30;;;23.15;;
29916;SDS011;16786;49.466;11.068;2022-08-19T00:12:42;30.50;;;25.13;;
29916;SDS011;16786;49.466;11.068;2022-08-19T00:15:13;28.00;;;24.90;;
29916;SDS011;16786;49.466;11.068;2022-08-19T00:17:43;31.50;;;25.52;;
29916;SDS011;16786;49.466;11.068;2022-08-19T00:20:11;33.30;;;25.30;;
29916;SDS011;16786;49.466;11.068;2022-08-19T00:22:43;26.05;;;22.20;;
29916;SDS011;16786;49.466;11.068;2022-08-19T00:25:12;29.80;;;24.70;;
29916;SDS011;16786;49.466;11.068;2022-08-19T00:27:41;30.98;;;25.90;;
29916;SDS011;16786;49.466;11.068;2022-08-19T00:30:09;32.28;;;25.83;;
29916;SDS011;16786;49.466;11.068;2022-08-19T00:32:39;33.80;;;27.15;;
29916;SDS011;16786;49.466;11.068;2022-08-19T00:35:07;32.95;;;25.23;;
29916;SDS011;16786;49.466;11.068;2022-08-19T00:37:41;33.67;;;26.08;;
29916;SDS011;16786;49.466;11.068;2022-08-19T00:40:12;32.33;;;26.70;;
29916;SDS011;16786;49.466;11.068;2022-08-19T00:42:40;34.78;;;27.85;;
29916;SDS011;16786;49.466;11.068;2022-08-19T00:45:09;32.42;;;26.75;;
29916;SDS011;16786;49.466;11.068;2022-08-19T00:47:39;30.88;;;27.08;;
29916;SDS011;16786;49.466;11.068;2022-08-19T00:50:06;35.22;;;27.30;;
29916;SDS011;16786;49.466;11.068;2022-08-19T00:52:37;34.78;;;26.65;;
29916;SDS011;16786;49.466;11.068;2022-08-19T00:55:21;31.08;;;27.10;;
29916;SDS011;16786;49.466;11.068;2022-08-19T01:00:54;29.38;;;26.02;;
29916;SDS011;16786;49.466;11.068;2022-08-19T01:03:22;34.17;;;26.67;;
29916;SDS011;16786;49.466;11.068;2022-08-19T01:05:50;31.27;;;25.17;;
29916;SDS011;16786;49.466;11.068;2022-08-19T01:08:20;28.58;;;24.83;;
29916;SDS011;16786;49.466;11.068;2022-08-19T01:10:52;33.40;;;28.80;;
29916;SDS011;16786;49.466;11.068;2022-08-19T01:13:23;32.08;;;26.95;;
29916;SDS011;16786;49.466;11.068;2022-08-19T01:15:57;30.90;;;26.27;;
29916;SDS011;16786;49.466;11.068;2022-08-19T01:18:31;33.38;;;27.40;;
29916;SDS011;16786;49.466;11.068;2022-08-19T01:21:02;30.77;;;25.73;;
29916;SDS011;16786;49.466;11.068;2022-08-19T01:23:48;33.83;;;26.15;;
29916;SDS011;16786;49.466;11.068;2022-08-19T01:26:20;31.75;;;27.33;;
29916;SDS011;16786;49.466;11.068;2022-08-19T01:28:50;31.73;;;25.67;;
29916;SDS011;16786;49.466;11.068;2022-08-19T01:31:23;32.28;;;27.77;;
29916;SDS011;16786;49.466;11.068;2022-08-19T01:33:55;34.20;;;27.42;;
29916;SDS011;16786;49.466;11.068;2022-08-19T01:38:53;30.58;;;26.10;;
29916;SDS011;16786;49.466;11.068;2022-08-19T01:41:21;33.08;;;28.10;;
29916;SDS011;16786;49.466;11.068;2022-08-19T01:43:50;33.28;;;27.42;;
29916;SDS011;16786;49.466;11.068;2022-08-19T01:46:39;33.20;;;28.45;;
29916;SDS011;16786;49.466;11.068;2022-08-19T01:49:07;35.63;;;27.95;;
29916;SDS011;16786;49.466;11.068;2022-08-19T01:51:36;33.15;;;26.35;;
29916;SDS011;16786;49.466;11.068;2022-08-19T01:54:09;34.22;;;28.48;;
29916;SDS011;16786;49.466;11.068;2022-08-19T01:56:38;35.22;;;27.85;;
29916;SDS011;16786;49.466;11.068;2022-08-19T01:59:08;36.80;;;28.70;;
29916;SDS011;16786;49.466;11.068;2022-08-19T02:01:41;31.17;;;25.75;;
29916;SDS011;16786;49.466;11.068;2022-08-19T02:04:08;30.52;;;25.45;;
29916;SDS011;16786;49.466;11.068;2022-08-19T02:06:36;36.03;;;29.10;;
29916;SDS011;16786;49.466;11.068;2022-08-19T02:09:05;34.50;;;29.08;;
29916;SDS011;16786;49.466;11.068;2022-08-19T02:11:33;34.03;;;29.08;;
29916;SDS011;16786;49.466;11.068;2022-08-19T02:14:03;34.67;;;29.85;;
29916;SDS011;16786;49.466;11.068;2022-08-19T02:16:33;33.50;;;28.23;;
29916;SDS011;16786;49.466;11.068;2022-08-19T02:19:02;34.22;;;27.27;;
29916;SDS011;16786;49.466;11.068;2022-08-19T02:21:30;34.95;;;28.40;;
29916;SDS011;16786;49.466;11.068;2022-08-19T02:23:57;31.38;;;27.05;;
29916;SDS011;16786;49.466;11.068;2022-08-19T02:26:25;35.83;;;27.50;;
29916;SDS011;16786;49.466;11.068;2022-08-19T02:28:53;34.40;;;28.30;;
29916;SDS011;16786;49.466;11.068;2022-08-19T02:31:22;34.28;;;28.52;;
29916;SDS011;16786;49.466;11.068;2022-08-19T02:33:51;37.53;;;29.63;;
29916;SDS011;16786;49.466;11.068;2022-08-19T02:36:22;36.47;;;28.90;;
29916;SDS011;16786;49.466;11.068;2022-08-19T02:38:50;35.58;;;29.15;;
29916;SDS011;16786;49.466;11.068;2022-08-19T02:41:22;33.08;;;27.75;;
29916;SDS011;16786;49.466;11.068;2022-08-19T02:43:56;35.20;;;28.05;;
29916;SDS011;16786;49.466;11.068;2022-08-19T02:46:45;38.72;;;30.27;;
29916;SDS011;16786;49.466;11.068;2022-08-19T02:49:14;37.67;;;29.38;;
29916;SDS011;16786;49.466;11.068;2022-08-19T02:51:44;36.78;;;28.65;;
29916;SDS011;16786;49.466;11.068;2022-08-19T02:54:12;37.22;;;28.75;;
29916;SDS011;16786;49.466;11.068;2022-08-19T02:56:42;35.08;;;28.13;;
29916;SDS011;16786;49.466;11.068;2022-08-19T02:59:10;39.13;;;29.63;;
29916;SDS011;16786;49.466;11.068;2022-08-19T03:01:39;31.95;;;25.52;;
29916;SDS011;16786;49.466;11.068;2022-08-19T03:04:09;34.72;;;28.25;;
29916;SDS011;16786;49.466;11.068;2022-08-19T03:06:39;33.92;;;27.95;;
29916;SDS011;16786;49.466;11.068;2022-08-19T03:09:08;36.13;;;28.15;;
29916;SDS011;16786;49.466;11.068;2022-08-19T03:11:35;34.17;;;28.42;;
29916;SDS011;16786;49.466;11.068;2022-08-19T03:14:05;33.60;;;26.85;;
29916;SDS011;16786;49.466;11.068;2022-08-19T03:16:36;41.00;;;30.63;;
29916;SDS011;16786;49.466;11.068;2022-08-19T03:19:11;35.50;;;29.40;;
29916;SDS011;16786;49.466;11.068;2022-08-19T03:21:39;38.35;;;29.27;;
29916;SDS011;16786;49.466;11.068;2022-08-19T03:24:08;38.05;;;28.88;;
29916;SDS011;16786;49.466;11.068;2022-08-19T03:26:40;34.60;;;27.65;;
29916;SDS011;16786;49.466;11.068;2022-08-19T03:29:09;44.47;;;32.08;;
29916;SDS011;16786;49.466;11.068;2022-08-19T03:31:39;40.83;;;31.88;;
29916;SDS011;16786;49.466;11.068;2022-08-19T03:34:24;39.42;;;30.50;;
29916;SDS011;16786;49.466;11.068;2022-08-19T03:36:56;42.28;;;32.78;;
29916;SDS011;16786;49.466;11.068;2022-08-19T03:39:29;40.42;;;31.73;;
29916;SDS011;16786;49.466;11.068;2022-08-19T03:41:56;44.28;;;33.45;;
29916;SDS011;16786;49.466;11.068;2022-08-19T03:44:46;43.63;;;34.15;;
29916;SDS011;16786;49.466;11.068;2022-08-19T03:47:13;45.55;;;34.30;;
29916;SDS011;16786;49.466;11.068;2022-08-19T03:49:42;47.15;;;36.33;;
29916;SDS011;16786;49.466;11.068;2022-08-19T03:52:10;48.72;;;33.42;;
29916;SDS011;16786;49.466;11.068;2022-08-19T03:54:37;44.92;;;34.38;;
29916;SDS011;16786;49.466;11.068;2022-08-19T03:57:05;46.22;;;34.35;;
29916;SDS011;16786;49.466;11.068;2022-08-19T03:59:37;43.83;;;33.95;;
29916;SDS011;16786;49.466;11.068;2022-08-19T04:02:09;46.22;;;33.78;;
29916;SDS011;16786;49.466;11.068;2022-08-19T04:04:38;46.65;;;34.30;;
29916;SDS011;16786;49.466;11.068;2022-08-19T04:07:08;44.78;;;34.15;;
29916;SDS011;16786;49.466;11.068;2022-08-19T04:09:36;46.85;;;33.97;;
29916;SDS011;16786;49.466;11.068;2022-08-19T04:12:04;47.33;;;33.88;;
29916;SDS011;16786;49.466;11.068;2022-08-19T04:14:32;47.63;;;34.03;;
29916;SDS011;16786;49.466;11.068;2022-08-19T04:17:01;50.03;;;35.17;;
29916;SDS011;16786;49.466;11.068;2022-08-19T04:19:32;46.58;;;34.45;;
29916;SDS011;16786;49.466;11.068;2022-08-19T04:22:01;47.15;;;34.30;;
29916;SDS011;16786;49.466;11.068;2022-08-19T04:24:29;48.92;;;34.78;;
29916;SDS011;16786;49.466;11.068;2022-08-19T04:26:58;43.58;;;32.50;;
29916;SDS011;16786;49.466;11.068;2022-08-19T04:29:27;43.85;;;33.63;;
29916;SDS011;16786;49.466;11.068;2022-08-19T04:31:56;43.95;;;32.83;;
29916;SDS011;16786;49.466;11.068;2022-08-19T04:34:26;45.08;;;32.35;;
29916;SDS011;16786;49.466;11.068;2022-08-19T04:36:57;44.03;;;32.60;;
29916;SDS011;16786;49.466;11.068;2022-08-19T04:39:27;46.42;;;33.13;;
29916;SDS011;16786;49.466;11.068;2022-08-19T04:42:15;43.60;;;31.15;;
29916;SDS011;16786;49.466;11.068;2022-08-19T04:45:03;41.28;;;30.30;;
29916;SDS011;16786;49.466;11.068;2022-08-19T04:47:40;38.40;;;28.80;;
29916;SDS011;16786;49.466;11.068;2022-08-19T04:50:13;41.03;;;30.92;;
29916;SDS011;16786;49.466;11.068;2022-08-19T04:52:44;40.97;;;30.45;;
29916;SDS011;16786;49.466;11.068;2022-08-19T04:55:11;40.38;;;30.58;;
29916;SDS011;16786;49.466;11.068;2022-08-19T04:57:40;40.40;;;31.10;;
29916;SDS011;16786;49.466;11.068;2022-08-19T05:00:08;40.25;;;31.70;;
29916;SDS011;16786;49.466;11.068;2022-08-19T05:02:36;38.92;;;29.90;;
29916;SDS011;16786;49.466;11.068;2022-08-19T05:05:04;41.85;;;30.88;;
29916;SDS011;16786;49.466;11.068;2022-08-19T05:07:33;39.05;;;29.80;;
29916;SDS011;16786;49.466;11.068;2022-08-19T05:10:00;44.63;;;31.77;;
29916;SDS011;16786;49.466;11.068;2022-08-19T05:12:28;41.40;;;31.38;;
29916;SDS011;16786;49.466;11.068;2022-08-19T05:14:56;45.13;;;31.02;;
29916;SDS011;16786;49.466;11.068;2022-08-19T05:17:25;41.95;;;29.67;;
29916;SDS011;16786;49.466;11.068;2022-08-19T05:19:57;42.20;;;29.70;;
29916;SDS011;16786;49.466;11.068;2022-08-19T05:22:44;39.50;;;29.50;;
29916;SDS011;16786;49.466;11.068;2022-08-19T05:25:15;42.92;;;31.38;;
29916;SDS011;16786;49.466;11.068;2022-08-19T05:27:45;43.83;;;32.28;;
29916;SDS011;16786;49.466;11.068;2022-08-19T05:30:13;39.40;;;30.58;;
29916;SDS011;16786;49.466;11.068;2022-08-19T05:32:41;38.92;;;30.17;;
29916;SDS011;16786;49.466;11.068;2022-08-19T05:35:09;41.85;;;30.88;;
29916;SDS011;16786;49.466;11.068;2022-08-19T05:37:37;38.53;;;29.20;;
29916;SDS011;16786;49.466;11.068;2022-08-19T05:40:07;39.50;;;29.77;;
29916;SDS011;16786;49.466;11.068;2022-08-19T05:42:36;36.88;;;28.35;;
29916;SDS011;16786;49.466;11.068;2022-08-19T05:45:04;39.92;;;30.45;;
29916;SDS011;16786;49.466;11.068;2022-08-19T05:47:31;39.28;;;29.98;;
29916;SDS011;16786;49.466;11.068;2022-08-19T05:49:59;36.97;;;28.77;;
29916;SDS011;16786;49.466;11.068;2022-08-19T05:52:30;37.60;;;28.13;;
29916;SDS011;16786;49.466;11.068;2022-08-19T05:54:59;35.95;;;27.42;;
29916;SDS011;16786;49.466;11.068;2022-08-19T05:57:26;35.20;;;26.73;;
29916;SDS011;16786;49.466;11.068;2022-08-19T05:59:55;39.50;;;27.27;;
29916;SDS011;16786;49.466;11.068;2022-08-19T06:02:25;34.88;;;28.45;;
29916;SDS011;16786;49.466;11.068;2022-08-19T06:04:53;31.52;;;25.27;;
29916;SDS011;16786;49.466;11.068;2022-08-19T06:07:20;38.33;;;28.00;;
29916;SDS011;16786;49.466;11.068;2022-08-19T06:09:48;34.47;;;27.08;;
29916;SDS011;16786;49.466;11.068;2022-08-19T06:12:27;33.78;;;27.33;;
29916;SDS011;16786;49.466;11.068;2022-08-19T06:14:58;31.42;;;23.98;;
29916;SDS011;16786;49.466;11.068;2022-08-19T06:17:30;28.05;;;23.73;;
29916;SDS011;16786;49.466;11.068;2022-08-19T06:19:58;27.77;;;22.92;;
29916;SDS011;16786;49.466;11.068;2022-08-19T06:22:26;29.77;;;24.50;;
29916;SDS011;16786;49.466;11.068;2022-08-19T06:24:55;30.17;;;24.05;;
29916;SDS011;16786;49.466;11.068;2022-08-19T06:27:22;34.15;;;27.65;;
29916;SDS011;16786;49.466;11.068;2022-08-19T06:29:50;34.95;;;27.25;;
29916;SDS011;16786;49.466;11.068;2022-08-19T06:32:17;34.40;;;25.42;;
29916;SDS011;16786;49.466;11.068;2022-08-19T06:34:47;33.88;;;26.92;;
29916;SDS011;16786;49.466;11.068;2022-08-19T06:37:15;36.28;;;27.75;;
29916;SDS011;16786;49.466;11.068;2022-08-19T06:39:43;25.02;;;20.70;;
29916;SDS011;16786;49.466;11.068;2022-08-19T06:42:11;24.23;;;20.85;;
29916;SDS011;16786;49.466;11.068;2022-08-19T06:44:40;27.40;;;22.42;;
29916;SDS011;16786;49.466;11.068;2022-08-19T06:47:16;28.73;;;24.08;;
29916;SDS011;16786;49.466;11.068;2022-08-19T06:49:52;26.45;;;21.77;;
29916;SDS011;16786;49.466;11.068;2022-08-19T06:52:27;25.73;;;21.10;;
29916;SDS011;16786;49.466;11.068;2022-08-19T06:54:54;24.15;;;21.08;;
29916;SDS011;16786;49.466;11.068;2022-08-19T06:57:25;26.92;;;22.23;;
29916;SDS011;16786;49.466;11.068;2022-08-19T06:59:53;23.23;;;20.55;;
29916;SDS011;16786;49.466;11.068;2022-08-19T07:02:22;21.05;;;17.75;;
29916;SDS011;16786;49.466;11.068;2022-08-19T07:04:53;17.83;;;15.75;;
29916;SDS011;16786;49.466;11.068;2022-08-19T07:07:20;17.50;;;15.02;;
29916;SDS011;16786;49.466;11.068;2022-08-19T07:09:49;17.13;;;14.80;;
29916;SDS011;16786;49.466;11.068;2022-08-19T07:12:30;20.08;;;17.27;;
29916;SDS011;16786;49.466;11.068;2022-08-19T07:15:04;20.10;;;18.00;;
29916;SDS011;16786;49.466;11.068;2022-08-19T07:17:33;20.85;;;18.52;;
29916;SDS011;16786;49.466;11.068;2022-08-19T07:20:05;22.30;;;18.08;;
29916;SDS011;16786;49.466;11.068;2022-08-19T07:22:39;22.15;;;17.58;;
29916;SDS011;16786;49.466;11.068;2022-08-19T07:25:09;20.42;;;17.73;;
29916;SDS011;16786;49.466;11.068;2022-08-19T07:27:36;22.88;;;17.17;;
29916;SDS011;16786;49.466;11.068;2022-08-19T07:30:06;20.90;;;16.98;;
29916;SDS011;16786;49.466;11.068;2022-08-19T07:32:38;18.92;;;16.45;;
29916;SDS011;16786;49.466;11.068;2022-08-19T07:35:06;20.35;;;17.58;;
29916;SDS011;16786;49.466;11.068;2022-08-19T07:37:35;18.65;;;16.67;;
29916;SDS011;16786;49.466;11.068;2022-08-19T07:40:04;20.08;;;16.98;;
29916;SDS011;16786;49.466;11.068;2022-08-19T07:42:34;19.88;;;17.17;;
29916;SDS011;16786;49.466;11.068;2022-08-19T07:45:02;19.25;;;16.80;;
29916;SDS011;16786;49.466;11.068;2022-08-19T07:47:30;19.42;;;17.27;;
29916;SDS011;16786;49.466;11.068;2022-08-19T07:50:17;19.58;;;17.48;;
29916;SDS011;16786;49.466;11.068;2022-08-19T07:52:47;22.13;;;17.63;;
29916;SDS011;16786;49.466;11.068;2022-08-19T07:55:18;19.52;;;17.42;;
29916;SDS011;16786;49.466;11.068;2022-08-19T07:58:07;21.17;;;17.48;;
29916;SDS011;16786;49.466;11.068;2022-08-19T08:00:34;22.65;;;18.27;;
29916;SDS011;16786;49.466;11.068;2022-08-19T08:03:02;19.73;;;17.50;;
29916;SDS011;16786;49.466;11.068;2022-08-19T08:05:29;23.92;;;18.73;;
29916;SDS011;16786;49.466;11.068;2022-08-19T08:08:15;20.92;;;17.48;;
29916;SDS011;16786;49.466;11.068;2022-08-19T08:11:01;22.50;;;17.98;;
29916;SDS011;16786;49.466;11.068;2022-08-19T08:13:33;20.65;;;17.40;;
29916;SDS011;16786;49.466;11.068;2022-08-19T08:16:04;22.00;;;18.67;;
29916;SDS011;16786;49.466;11.068;2022-08-19T08:18:39;19.90;;;17.75;;
29916;SDS011;16786;49.466;11.068;2022-08-19T08:21:16;19.83;;;17.05;;
29916;SDS011;16786;49.466;11.068;2022-08-19T08:23:43;21.50;;;18.30;;
29916;SDS011;16786;49.466;11.068;2022-08-19T08:26:11;23.48;;;19.25;;
29916;SDS011;16786;49.466;11.068;2022-08-19T08:28:41;21.88;;;19.27;;
29916;SDS011;16786;49.466;11.068;2022-08-19T08:31:14;25.00;;;19.80;;
29916;SDS011;16786;49.466;11.068;2022-08-19T08:33:42;24.85;;;19.40;;
29916;SDS011;16786;49.466;11.068;2022-08-19T08:36:10;24.73;;;19.98;;
29916;SDS011;16786;49.466;11.068;2022-08-19T08:38:40;31.67;;;25.52;;
29916;SDS011;16786;49.466;11.068;2022-08-19T08:43:40;33.30;;;25.77;;
29916;SDS011;16786;49.466;11.068;2022-08-19T08:49:12;34.50;;;25.98;;
29916;SDS011;16786;49.466;11.068;2022-08-19T08:51:51;32.45;;;25.17;;
29916;SDS011;16786;49.466;11.068;2022-08-19T08:54:35;37.65;;;27.70;;
29916;SDS011;16786;49.466;11.068;2022-08-19T08:57:18;37.05;;;26.75;;
29916;SDS011;16786;49.466;11.068;2022-08-19T09:00:10;36.38;;;27.30;;
29916;SDS011;16786;49.466;11.068;2022-08-19T09:02:43;32.70;;;27.73;;
29916;SDS011;16786;49.466;11.068;2022-08-19T09:05:16;37.50;;;27.75;;
29916;SDS011;16786;49.466;11.068;2022-08-19T09:10:34;36.22;;;27.10;;
29916;SDS011;16786;49.466;11.068;2022-08-19T09:13:14;40.60;;;26.48;;
29916;SDS011;16786;49.466;11.068;2022-08-19T09:16:05;35.45;;;26.92;;
29916;SDS011;16786;49.466;11.068;2022-08-19T09:18:43;35.80;;;25.38;;
29916;SDS011;16786;49.466;11.068;2022-08-19T09:21:20;34.25;;;25.30;;
29916;SDS011;16786;49.466;11.068;2022-08-19T09:23:56;33.70;;;25.08;;
29916;SDS011;16786;49.466;11.068;2022-08-19T09:26:25;33.45;;;24.92;;
29916;SDS011;16786;49.466;11.068;2022-08-19T09:29:13;32.00;;;24.15;;
29916;SDS011;16786;49.466;11.068;2022-08-19T09:31:40;31.25;;;24.58;;
29916;SDS011;16786;49.466;11.068;2022-08-19T09:34:08;29.95;;;23.45;;
29916;SDS011;16786;49.466;11.068;2022-08-19T09:36:47;31.70;;;25.05;;
29916;SDS011;16786;49.466;11.068;2022-08-19T09:39:20;31.30;;;24.67;;
29916;SDS011;16786;49.466;11.068;2022-08-19T09:41:48;29.92;;;23.27;;
29916;SDS011;16786;49.466;11.068;2022-08-19T09:44:16;28.58;;;21.70;;
29916;SDS011;16786;49.466;11.068;2022-08-19T09:46:44;32.15;;;22.88;;
29916;SDS011;16786;49.466;11.068;2022-08-19T09:49:14;33.30;;;24.45;;
29916;SDS011;16786;49.466;11.068;2022-08-19T09:51:44;31.67;;;24.42;;
29916;SDS011;16786;49.466;11.068;2022-08-19T09:54:17;33.45;;;26.30;;
29916;SDS011;16786;49.466;11.068;2022-08-19T09:56:51;32.13;;;24.65;;
29916;SDS011;16786;49.466;11.068;2022-08-19T09:59:22;30.42;;;23.08;;
29916;SDS011;16786;49.466;11.068;2022-08-19T10:01:50;33.25;;;24.50;;
29916;SDS011;16786;49.466;11.068;2022-08-19T10:04:19;31.40;;;22.67;;
29916;SDS011;16786;49.466;11.068;2022-08-19T10:06:48;31.50;;;23.42;;
29916;SDS011;16786;49.466;11.068;2022-08-19T10:09:21;35.58;;;24.85;;
29916;SDS011;16786;49.466;11.068;2022-08-19T10:11:59;31.67;;;24.63;;
29916;SDS011;16786;49.466;11.068;2022-08-19T10:14:28;32.97;;;25.38;;
29916;SDS011;16786;49.466;11.068;2022-08-19T10:16:56;34.20;;;24.75;;
29916;SDS011;16786;49.466;11.068;2022-08-19T10:19:24;32.38;;;24.95;;
29916;SDS011;16786;49.466;11.068;2022-08-19T10:21:53;31.05;;;23.33;;
29916;SDS011;16786;49.466;11.068;2022-08-19T10:24:26;32.53;;;23.90;;
29916;SDS011;16786;49.466;11.068;2022-08-19T10:26:55;33.03;;;24.48;;
29916;SDS011;16786;49.466;11.068;2022-08-19T10:29:26;31.15;;;24.13;;
29916;SDS011;16786;49.466;11.068;2022-08-19T10:32:02;29.25;;;22.80;;
29916;SDS011;16786;49.466;11.068;2022-08-19T10:34:36;28.60;;;21.98;;
29916;SDS011;16786;49.466;11.068;2022-08-19T10:37:15;29.83;;;23.67;;
29916;SDS011;16786;49.466;11.068;2022-08-19T10:39:52;31.48;;;24.13;;
29916;SDS011;16786;49.466;11.068;2022-08-19T10:42:19;29.00;;;23.02;;
29916;SDS011;16786;49.466;11.068;2022-08-19T10:44:47;27.25;;;22.05;;
29916;SDS011;16786;49.466;11.068;2022-08-19T10:47:17;32.47;;;23.42;;
29916;SDS011;16786;49.466;11.068;2022-08-19T10:49:52;30.17;;;25.00;;
29916;SDS011;16786;49.466;11.068;2022-08-19T10:52:40;30.13;;;23.63;;
29916;SDS011;16786;49.466;11.068;2022-08-19T10:55:15;29.50;;;23.50;;
29916;SDS011;16786;49.466;11.068;2022-08-19T10:58:09;32.60;;;23.58;;
29916;SDS011;16786;49.466;11.068;2022-08-19T11:00:41;27.85;;;22.70;;
29916;SDS011;16786;49.466;11.068;2022-08-19T11:03:10;29.05;;;23.60;;
29916;SDS011;16786;49.466;11.068;2022-08-19T11:05:37;26.05;;;21.75;;
29916;SDS011;16786;49.466;11.068;2022-08-19T11:08:07;27.98;;;22.13;;
29916;SDS011;16786;49.466;11.068;2022-08-19T11:10:53;27.95;;;22.65;;
29916;SDS011;16786;49.466;11.068;2022-08-19T11:13:24;27.65;;;21.45;;
29916;SDS011;16786;49.466;11.068;2022-08-19T11:16:03;28.25;;;22.17;;
29916;SDS011;16786;49.466;11.068;2022-08-19T11:18:38;24.45;;;20.33;;
29916;SDS011;16786;49.466;11.068;2022-08-19T11:21:08;27.40;;;20.60;;
29916;SDS011;16786;49.466;11.068;2022-08-19T11:23:38;25.42;;;20.13;;
29916;SDS011;16786;49.466;11.068;2022-08-19T11:26:06;24.70;;;21.65;;
29916;SDS011;16786;49.466;11.068;2022-08-19T11:28:33;25.40;;;20.40;;
29916;SDS011;16786;49.466;11.068;2022-08-19T11:31:01;23.73;;;19.55;;
29916;SDS011;16786;49.466;11.068;2022-08-19T11:33:30;29.20;;;22.05;;
29916;SDS011;16786;49.466;11.068;2022-08-19T11:35:59;27.98;;;20.27;;
29916;SDS011;16786;49.466;11.068;2022-08-19T11:38:28;26.27;;;21.15;;
29916;SDS011;16786;49.466;11.068;2022-08-19T11:41:00;24.15;;;20.38;;
29916;SDS011;16786;49.466;11.068;2022-08-19T11:43:30;22.50;;;18.90;;
29916;SDS011;16786;49.466;11.068;2022-08-19T11:46:03;22.10;;;19.40;;
29916;SDS011;16786;49.466;11.068;2022-08-19T11:48:36;24.17;;;20.45;;
29916;SDS011;16786;49.466;11.068;2022-08-19T11:51:05;27.00;;;21.38;;
29916;SDS011;16786;49.466;11.068;2022-08-19T11:53:37;24.50;;;21.15;;
29916;SDS011;16786;49.466;11.068;2022-08-19T11:56:06;25.38;;;20.77;;
29916;SDS011;16786;49.466;11.068;2022-08-19T11:58:35;27.30;;;21.95;;
29916;SDS011;16786;49.466;11.068;2022-08-19T12:01:09;23.90;;;20.50;;
29916;SDS011;16786;49.466;11.068;2022-08-19T12:03:38;24.35;;;21.63;;
29916;SDS011;16786;49.466;11.068;2022-08-19T12:06:06;26.45;;;20.13;;
29916;SDS011;16786;49.466;11.068;2022-08-19T12:08:35;26.25;;;20.85;;
29916;SDS011;16786;49.466;11.068;2022-08-19T12:11:03;26.85;;;20.90;;
29916;SDS011;16786;49.466;11.068;2022-08-19T12:13:31;22.70;;;19.85;;
29916;SDS011;16786;49.466;11.068;2022-08-19T12:15:58;24.95;;;21.23;;
29916;SDS011;16786;49.466;11.068;2022-08-19T12:18:26;26.85;;;20.95;;
29916;SDS011;16786;49.466;11.068;2022-08-19T12:20:54;24.15;;;21.10;;
29916;SDS011;16786;49.466;11.068;2022-08-19T12:23:21;25.77;;;19.23;;
29916;SDS011;16786;49.466;11.068;2022-08-19T12:25:50;25.25;;;21.08;;
29916;SDS011;16786;49.466;11.068;2022-08-19T12:28:19;24.08;;;20.90;;
29916;SDS011;16786;49.466;11.068;2022-08-19T12:30:48;26.50;;;21.52;;
29916;SDS011;16786;49.466;11.068;2022-08-19T12:33:19;26.05;;;20.80;;
29916;SDS011;16786;49.466;11.068;2022-08-19T12:35:50;21.35;;;19.10;;
29916;SDS011;16786;49.466;11.068;2022-08-19T12:38:18;26.88;;;21.98;;
29916;SDS011;16786;49.466;11.068;2022-08-19T12:40:46;26.10;;;22.88;;
29916;SDS011;16786;49.466;11.068;2022-08-19T12:43:15;26.13;;;21.98;;
29916;SDS011;16786;49.466;11.068;2022-08-19T12:45:42;25.42;;;22.20;;
29916;SDS011;16786;49.466;11.068;2022-08-19T12:48:12;25.42;;;21.15;;
29916;SDS011;16786;49.466;11.068;2022-08-19T12:51:01;24.85;;;21.92;;
29916;SDS011;16786;49.466;11.068;2022-08-19T12:53:33;29.25;;;23.85;;
29916;SDS011;16786;49.466;11.068;2022-08-19T12:56:05;27.43;;;22.97;;
29916;SDS011;16786;49.466;11.068;2022-08-19T12:58:38;32.30;;;24.63;;
29916;SDS011;16786;49.466;11.068;2022-08-19T13:01:18;30.95;;;25.25;;
29916;SDS011;16786;49.466;11.068;2022-08-19T13:03:49;32.50;;;25.83;;
29916;SDS011;16786;49.466;11.068;2022-08-19T13:06:19;30.13;;;24.98;;
29916;SDS011;16786;49.466;11.068;2022-08-19T13:08:47;31.83;;;26.27;;
29916;SDS011;16786;49.466;11.068;2022-08-19T13:11:15;31.40;;;26.55;;
29916;SDS011;16786;49.466;11.068;2022-08-19T13:13:46;37.95;;;29.05;;
29916;SDS011;16786;49.466;11.068;2022-08-19T13:16:15;33.45;;;28.52;;
29916;SDS011;16786;49.466;11.068;2022-08-19T13:18:44;35.83;;;27.63;;
29916;SDS011;16786;49.466;11.068;2022-08-19T13:21:18;34.55;;;28.02;;
29916;SDS011;16786;49.466;11.068;2022-08-19T13:23:49;39.33;;;28.80;;
29916;SDS011;16786;49.466;11.068;2022-08-19T13:26:18;35.42;;;29.17;;
29916;SDS011;16786;49.466;11.068;2022-08-19T13:28:45;32.20;;;26.02;;
29916;SDS011;16786;49.466;11.068;2022-08-19T13:31:34;33.20;;;28.33;;
29916;SDS011;16786;49.466;11.068;2022-08-19T13:34:28;37.17;;;29.50;;
29916;SDS011;16786;49.466;11.068;2022-08-19T13:37:01;33.88;;;28.58;;
29916;SDS011;16786;49.466;11.068;2022-08-19T13:39:31;34.60;;;28.60;;
29916;SDS011;16786;49.466;11.068;2022-08-19T13:42:00;41.95;;;31.38;;
29916;SDS011;16786;49.466;11.068;2022-08-19T13:44:28;35.35;;;28.60;;
29916;SDS011;16786;49.466;11.068;2022-08-19T13:47:00;35.17;;;28.52;;
29916;SDS011;16786;49.466;11.068;2022-08-19T13:49:34;37.22;;;29.33;;
29916;SDS011;16786;49.466;11.068;2022-08-19T13:52:04;33.58;;;27.05;;
29916;SDS011;16786;49.466;11.068;2022-08-19T13:54:32;34.55;;;26.70;;
29916;SDS011;16786;49.466;11.068;2022-08-19T13:57:00;33.88;;;26.83;;
29916;SDS011;16786;49.466;11.068;2022-08-19T13:59:27;32.10;;;26.17;;
29916;SDS011;16786;49.466;11.068;2022-08-19T14:01:59;32.03;;;25.85;;
29916;SDS011;16786;49.466;11.068;2022-08-19T14:06:54;32.28;;;26.48;;
29916;SDS011;16786;49.466;11.068;2022-08-19T14:09:22;34.47;;;27.63;;
29916;SDS011;16786;49.466;11.068;2022-08-19T14:11:50;34.53;;;28.08;;
29916;SDS011;16786;49.466;11.068;2022-08-19T14:14:18;35.55;;;29.63;;
29916;SDS011;16786;49.466;11.068;2022-08-19T14:16:45;38.45;;;29.30;;
29916;SDS011;16786;49.466;11.068;2022-08-19T14:19:13;30.95;;;25.67;;
29916;SDS011;16786;49.466;11.068;2022-08-19T14:21:40;31.73;;;26.13;;
29916;SDS011;16786;49.466;11.068;2022-08-19T14:24:07;26.98;;;21.15;;
29916;SDS011;16786;49.466;11.068;2022-08-19T14:26:35;26.00;;;20.73;;
29916;SDS011;16786;49.466;11.068;2022-08-19T14:29:03;24.17;;;20.38;;
29916;SDS011;16786;49.466;11.068;2022-08-19T14:31:30;27.38;;;19.80;;
29916;SDS011;16786;49.466;11.068;2022-08-19T14:33:57;21.30;;;17.83;;
29916;SDS011;16786;49.466;11.068;2022-08-19T14:36:25;17.55;;;14.05;;
29916;SDS011;16786;49.466;11.068;2022-08-19T14:38:53;27.35;;;20.77;;
29916;SDS011;16786;49.466;11.068;2022-08-19T14:41:22;18.48;;;15.55;;
29916;SDS011;16786;49.466;11.068;2022-08-19T14:43:50;21.92;;;15.38;;
29916;SDS011;16786;49.466;11.068;2022-08-19T14:46:23;18.60;;;15.10;;